createdAt,value
2023-02-19T00:01:28.817Z,36.30
2023-02-19T00:03:58.057Z,37.13
2023-02-19T00:06:26.819Z,37.14
2023-02-19T00:08:53.923Z,37.57
2023-02-19T00:11:23.030Z,36.81
2023-02-19T00:13:52.694Z,38.10
2023-02-19T00:16:25.540Z,37.30
2023-02-19T00:18:53.748Z,37.22
2023-02-19T00:21:20.506Z,37.22
2023-02-19T00:23:55.718Z,37.19
2023-02-19T00:26:22.724Z,38.70
2023-02-19T00:28:51.691Z,37.86
2023-02-19T00:31:27.745Z,37.29
2023-02-19T00:34:01.503Z,39.35
2023-02-19T00:36:28.992Z,38.39
2023-02-19T00:38:55.732Z,40.79
2023-02-19T00:41:24.188Z,38.73
2023-02-19T00:43:56.702Z,39.65
2023-02-19T00:46:29.249Z,38.88
2023-02-19T00:48:56.789Z,39.47
2023-02-19T00:51:27.014Z,38.93
2023-02-19T00:53:54.365Z,38.46
2023-02-19T00:56:21.681Z,39.43
2023-02-19T00:58:49.182Z,41.12
2023-02-19T01:01:16.585Z,40.55
2023-02-19T01:03:45.096Z,39.81
2023-02-19T01:06:13.900Z,40.30
2023-02-19T01:08:40.923Z,39.38
2023-02-19T01:11:09.313Z,39.09
2023-02-19T01:13:36.941Z,38.94
2023-02-19T01:16:24.850Z,38.74
2023-02-19T01:18:52.277Z,38.60
2023-02-19T01:21:22.067Z,38.73
2023-02-19T01:23:50.328Z,38.31
2023-02-19T01:26:20.018Z,38.29
2023-02-19T01:28:47.570Z,38.37
2023-02-19T01:31:17.155Z,38.23
2023-02-19T01:33:48.762Z,38.29
2023-02-19T01:36:16.152Z,38.35
2023-02-19T01:38:43.800Z,39.74
2023-02-19T01:41:13.710Z,39.65
2023-02-19T01:44:01.224Z,39.57
2023-02-19T01:46:33.241Z,39.40
2023-02-19T01:49:24.185Z,39.36
2023-02-19T01:51:57.172Z,40.88
2023-02-19T01:54:28.595Z,40.13
2023-02-19T01:56:56.952Z,39.83
2023-02-19T01:59:24.998Z,40.26
2023-02-19T02:01:52.643Z,39.64
2023-02-19T02:04:19.682Z,40.77
2023-02-19T02:06:57.150Z,41.46
2023-02-19T02:09:46.492Z,40.76
2023-02-19T02:12:13.954Z,41.37
2023-02-19T02:14:45.211Z,41.16
2023-02-19T02:17:12.517Z,41.56
2023-02-19T02:20:05.310Z,40.79
2023-02-19T02:22:32.118Z,40.40
2023-02-19T02:25:14.238Z,40.67
2023-02-19T02:27:49.466Z,40.16
2023-02-19T02:30:19.669Z,40.54
2023-02-19T02:32:57.678Z,39.98
2023-02-19T02:35:39.858Z,39.74
2023-02-19T02:38:10.015Z,40.02
2023-02-19T02:40:41.528Z,39.50
2023-02-19T02:43:08.696Z,40.21
2023-02-19T02:45:35.816Z,39.87
2023-02-19T02:48:26.769Z,40.43
2023-02-19T02:51:00.320Z,40.03
2023-02-19T02:54:03.330Z,39.44
2023-02-19T02:56:31.561Z,39.32
2023-02-19T02:59:00.909Z,38.65
2023-02-19T03:01:52.214Z,38.91
2023-02-19T03:04:27.406Z,38.57
2023-02-19T03:06:57.114Z,38.25
2023-02-19T03:09:32.227Z,38.91
2023-02-19T03:12:22.232Z,38.77
2023-02-19T03:15:13.398Z,38.66
2023-02-19T03:18:06.532Z,38.56
2023-02-19T03:20:39.012Z,39.65
2023-02-19T03:23:09.383Z,39.75
2023-02-19T03:25:57.253Z,40.35
2023-02-19T03:28:58.055Z,39.78
2023-02-19T03:31:29.700Z,41.21
2023-02-19T03:34:06.972Z,40.91
2023-02-19T03:36:52.847Z,40.42
2023-02-19T03:39:23.366Z,40.20
2023-02-19T03:42:04.173Z,40.13
2023-02-19T03:44:44.369Z,40.46
2023-02-19T03:47:23.064Z,39.94
2023-02-19T03:49:52.105Z,40.26
2023-02-19T03:52:47.303Z,40.24
2023-02-19T03:55:19.314Z,39.93
2023-02-19T03:58:08.070Z,40.32
2023-02-19T04:00:54.546Z,40.45
2023-02-19T04:03:31.509Z,40.99
2023-02-19T04:06:05.809Z,40.39
2023-02-19T04:08:36.244Z,40.85
2023-02-19T04:11:06.421Z,41.47
2023-02-19T04:13:44.509Z,40.96
2023-02-19T04:16:17.972Z,42.79
2023-02-19T04:18:48.921Z,41.15
2023-02-19T04:21:16.150Z,42.44
2023-02-19T04:23:45.454Z,41.94
2023-02-19T04:26:15.267Z,41.80
2023-02-19T04:28:44.171Z,41.95
2023-02-19T04:31:11.699Z,42.02
2023-02-19T04:33:38.840Z,42.22
2023-02-19T04:36:07.449Z,42.80
2023-02-19T04:38:34.488Z,42.22
2023-02-19T04:41:01.128Z,41.88
2023-02-19T04:43:27.891Z,41.67
2023-02-19T04:45:54.895Z,42.78
2023-02-19T04:48:21.895Z,43.05
2023-02-19T04:50:48.623Z,41.95
2023-02-19T04:53:15.486Z,42.22
2023-02-19T04:55:42.127Z,43.55
2023-02-19T04:58:08.916Z,42.63
2023-02-19T05:00:35.773Z,42.73
2023-02-19T05:03:02.736Z,42.65
2023-02-19T05:05:29.708Z,42.10
2023-02-19T05:07:56.416Z,42.28
2023-02-19T05:10:23.231Z,41.09
2023-02-19T05:12:50.013Z,41.00
2023-02-19T05:15:16.718Z,41.45
2023-02-19T05:17:43.597Z,41.04
2023-02-19T05:20:10.673Z,41.13
2023-02-19T05:22:43.249Z,41.21
2023-02-19T05:25:10.032Z,42.11
2023-02-19T05:27:37.904Z,41.77
2023-02-19T05:30:05.040Z,41.16
2023-02-19T05:32:32.001Z,41.92
2023-02-19T05:34:58.830Z,42.61
2023-02-19T05:37:25.579Z,42.48
2023-02-19T05:39:52.481Z,41.69
2023-02-19T05:42:19.212Z,41.22
2023-02-19T05:44:46.097Z,41.20
2023-02-19T05:47:13.144Z,40.76
2023-02-19T05:49:40.047Z,41.15
2023-02-19T05:52:06.899Z,41.85
2023-02-19T05:54:33.748Z,41.57
2023-02-19T05:57:00.624Z,41.26
2023-02-19T05:59:27.788Z,41.86
2023-02-19T06:01:55.819Z,41.53
2023-02-19T06:04:23.485Z,41.06
2023-02-19T06:06:50.471Z,40.69
2023-02-19T06:09:17.700Z,41.67
2023-02-19T06:11:44.766Z,40.94
2023-02-19T06:14:14.615Z,40.63
2023-02-19T06:16:42.366Z,40.23
2023-02-19T06:19:09.140Z,40.17
2023-02-19T06:21:36.092Z,40.54
2023-02-19T06:24:07.812Z,40.31
2023-02-19T06:26:34.981Z,40.54
2023-02-19T06:29:01.918Z,39.85
2023-02-19T06:31:28.956Z,40.70
2023-02-19T06:33:55.997Z,40.10
2023-02-19T06:36:23.322Z,39.76
2023-02-19T06:38:50.502Z,39.60
2023-02-19T06:41:18.158Z,39.38
2023-02-19T06:43:46.475Z,38.87
2023-02-19T06:46:13.736Z,38.65
2023-02-19T06:48:42.089Z,39.89
2023-02-19T06:51:12.963Z,39.27
2023-02-19T06:53:39.889Z,38.74
2023-02-19T06:56:22.512Z,37.76
2023-02-19T06:58:49.418Z,37.65
2023-02-19T07:01:16.264Z,37.11
2023-02-19T07:03:43.239Z,36.89
2023-02-19T07:06:10.099Z,37.13
2023-02-19T07:08:37.142Z,36.42
2023-02-19T07:11:03.992Z,36.10
2023-02-19T07:13:31.134Z,36.12
2023-02-19T07:16:00.247Z,35.67
2023-02-19T07:18:27.619Z,36.11
2023-02-19T07:20:54.464Z,36.30
2023-02-19T07:23:21.631Z,35.21
2023-02-19T07:25:48.494Z,35.30
2023-02-19T07:28:16.449Z,34.98
2023-02-19T07:30:44.341Z,34.58
2023-02-19T07:33:11.144Z,34.82
2023-02-19T07:35:37.937Z,34.16
2023-02-19T07:38:04.851Z,33.86
2023-02-19T07:40:32.622Z,33.43
2023-02-19T07:43:00.625Z,33.28
2023-02-19T07:45:27.424Z,32.48
2023-02-19T07:47:54.122Z,33.24
2023-02-19T07:50:20.995Z,33.02
2023-02-19T07:52:47.782Z,33.40
2023-02-19T07:55:14.402Z,33.01
2023-02-19T07:57:41.269Z,32.50
2023-02-19T08:00:08.251Z,32.02
2023-02-19T08:02:57.623Z,32.26
2023-02-19T08:05:24.536Z,31.70
2023-02-19T08:07:51.272Z,32.04
2023-02-19T08:10:36.460Z,31.46
2023-02-19T08:13:22.560Z,31.28
2023-02-19T08:16:07.541Z,30.94
2023-02-19T08:18:41.922Z,31.50
2023-02-19T08:21:09.022Z,31.75
2023-02-19T08:23:36.623Z,30.85
2023-02-19T08:26:03.784Z,31.28
2023-02-19T08:28:31.140Z,30.64
2023-02-19T08:31:08.344Z,30.68
2023-02-19T08:33:36.120Z,30.19
2023-02-19T08:36:06.673Z,30.50
2023-02-19T08:38:35.965Z,30.00
2023-02-19T08:41:12.994Z,29.98
2023-02-19T08:43:42.600Z,29.61
2023-02-19T08:46:11.710Z,29.27
2023-02-19T08:48:39.886Z,29.24
2023-02-19T08:51:09.793Z,29.07
2023-02-19T08:53:39.612Z,29.37
2023-02-19T08:56:07.601Z,28.60
2023-02-19T08:58:34.340Z,29.09
2023-02-19T09:01:01.320Z,28.56
2023-02-19T09:03:28.072Z,28.90
2023-02-19T09:05:54.924Z,29.02
2023-02-19T09:08:21.655Z,28.59
2023-02-19T09:11:01.805Z,28.97
2023-02-19T09:13:28.627Z,28.57
2023-02-19T09:15:57.187Z,28.22
2023-02-19T09:18:25.362Z,28.00
2023-02-19T09:20:52.278Z,28.43
2023-02-19T09:23:19.128Z,28.08
2023-02-19T09:25:45.951Z,28.23
2023-02-19T09:28:12.810Z,28.22
2023-02-19T09:30:39.612Z,27.50
2023-02-19T09:33:06.529Z,27.39
2023-02-19T09:35:33.306Z,27.80
2023-02-19T09:38:02.012Z,28.42
2023-02-19T09:40:30.408Z,27.54
2023-02-19T09:42:57.628Z,27.66
2023-02-19T09:45:26.293Z,27.55
2023-02-19T09:47:56.134Z,27.98
2023-02-19T09:50:36.924Z,27.33
2023-02-19T09:53:11.395Z,27.04
2023-02-19T09:55:43.691Z,26.36
2023-02-19T09:58:27.228Z,26.01
2023-02-19T10:00:57.081Z,25.97
2023-02-19T10:03:33.764Z,25.95
2023-02-19T10:06:24.714Z,26.39
2023-02-19T10:09:26.978Z,26.54
2023-02-19T10:11:59.014Z,26.58
2023-02-19T10:14:35.766Z,26.46
2023-02-19T10:17:05.436Z,26.27
2023-02-19T10:19:34.469Z,26.46
2023-02-19T10:22:04.230Z,25.88
2023-02-19T10:24:31.189Z,26.03
2023-02-19T10:26:58.045Z,26.05
2023-02-19T10:29:24.989Z,25.14
2023-02-19T10:32:24.082Z,25.60
2023-02-19T10:35:21.112Z,25.09
2023-02-19T10:37:50.920Z,25.45
2023-02-19T10:40:20.942Z,25.62
2023-02-19T10:42:54.077Z,25.37
2023-02-19T10:45:27.808Z,25.25
2023-02-19T10:47:54.778Z,24.20
2023-02-19T10:50:33.065Z,24.64
2023-02-19T10:53:02.070Z,25.51
2023-02-19T10:55:37.715Z,25.02
2023-02-19T10:58:29.330Z,25.15
2023-02-19T11:01:21.564Z,25.07
2023-02-19T11:03:50.976Z,25.57
2023-02-19T11:06:21.462Z,26.22
2023-02-19T11:09:00.041Z,25.72
2023-02-19T11:11:39.162Z,24.69
2023-02-19T11:14:15.840Z,25.17
2023-02-19T11:16:56.540Z,24.69
2023-02-19T11:19:37.760Z,24.47
2023-02-19T11:22:54.096Z,24.51
2023-02-19T11:25:25.628Z,23.63
2023-02-19T11:27:59.326Z,24.27
2023-02-19T11:30:35.556Z,24.03
2023-02-19T11:33:19.902Z,24.85
2023-02-19T11:35:47.475Z,23.53
2023-02-19T11:38:17.582Z,24.26
2023-02-19T11:41:15.144Z,23.65
2023-02-19T11:43:57.243Z,23.72
2023-02-19T11:46:49.021Z,23.06
2023-02-19T11:49:53.823Z,23.34
2023-02-19T11:52:26.912Z,23.88
2023-02-19T11:55:12.589Z,22.83
2023-02-19T11:58:01.705Z,22.63
2023-02-19T12:00:31.015Z,22.48
2023-02-19T12:03:38.874Z,22.83
2023-02-19T12:06:19.813Z,22.62
2023-02-19T12:08:55.684Z,21.84
2023-02-19T12:11:55.646Z,21.76
2023-02-19T12:14:22.444Z,21.18
2023-02-19T12:16:52.367Z,20.84
2023-02-19T12:19:42.258Z,20.62
2023-02-19T12:22:29.583Z,20.50
2023-02-19T12:25:49.215Z,19.95
2023-02-19T12:28:35.410Z,20.04
2023-02-19T12:31:47.485Z,19.22
2023-02-19T12:34:42.233Z,20.18
2023-02-19T12:37:10.036Z,19.66
2023-02-19T12:40:02.305Z,19.43
2023-02-19T12:42:56.755Z,18.57
2023-02-19T12:45:35.616Z,18.89
2023-02-19T12:48:10.886Z,20.28
2023-02-19T12:50:40.296Z,18.45
2023-02-19T12:53:31.750Z,19.02
2023-02-19T12:56:01.298Z,19.83
2023-02-19T12:58:39.560Z,20.57
2023-02-19T13:01:10.423Z,20.17
2023-02-19T13:04:04.939Z,18.96
2023-02-19T13:06:36.548Z,17.43
2023-02-19T13:09:13.734Z,16.82
2023-02-19T13:11:48.312Z,16.20
2023-02-19T13:14:25.379Z,18.88
2023-02-19T13:16:57.799Z,17.91
2023-02-19T13:19:24.811Z,16.76
2023-02-19T13:22:22.056Z,16.51
2023-02-19T13:24:50.665Z,16.12
2023-02-19T13:27:19.984Z,15.62
2023-02-19T13:30:12.101Z,15.83
2023-02-19T13:32:52.642Z,16.50
2023-02-19T13:35:32.538Z,16.05
2023-02-19T13:38:04.184Z,15.69
2023-02-19T13:40:37.003Z,15.77
2023-02-19T13:43:06.950Z,15.00
2023-02-19T13:45:45.911Z,14.38
2023-02-19T13:48:24.654Z,14.55
2023-02-19T13:51:17.350Z,14.54
2023-02-19T13:53:50.391Z,14.33
2023-02-19T13:56:35.541Z,14.92
2023-02-19T13:59:30.426Z,15.82
2023-02-19T14:01:57.232Z,16.66
2023-02-19T14:04:51.942Z,17.55
2023-02-19T14:07:18.716Z,17.58
2023-02-19T14:09:47.029Z,17.96
2023-02-19T14:12:15.725Z,18.42
2023-02-19T14:14:44.903Z,18.83
2023-02-19T14:17:26.497Z,19.07
2023-02-19T14:19:53.275Z,19.09
2023-02-19T14:22:56.925Z,18.40
2023-02-19T14:25:38.454Z,18.81
2023-02-19T14:28:16.817Z,19.19
2023-02-19T14:31:10.468Z,19.25
2023-02-19T14:33:40.272Z,19.73
2023-02-19T14:36:44.129Z,20.14
2023-02-19T14:39:24.569Z,20.42
2023-02-19T14:41:58.916Z,20.43
2023-02-19T14:44:29.274Z,21.18
2023-02-19T14:47:05.479Z,20.89
2023-02-19T14:49:45.948Z,20.68
2023-02-19T14:52:25.106Z,20.99
2023-02-19T14:54:59.916Z,20.87
2023-02-19T14:57:41.642Z,21.23
2023-02-19T15:00:27.144Z,21.29
2023-02-19T15:02:56.733Z,20.89
2023-02-19T15:05:30.064Z,22.62
2023-02-19T15:08:02.842Z,21.78
2023-02-19T15:10:32.256Z,22.44
2023-02-19T15:13:06.021Z,22.53
2023-02-19T15:15:40.850Z,22.74
2023-02-19T15:18:07.613Z,23.07
2023-02-19T15:20:37.234Z,23.17
2023-02-19T15:23:07.707Z,23.08
2023-02-19T15:25:39.519Z,23.16
2023-02-19T15:28:21.101Z,22.96
2023-02-19T15:30:48.008Z,23.46
2023-02-19T15:33:19.928Z,23.53
2023-02-19T15:35:55.964Z,23.14
2023-02-19T15:38:23.567Z,23.33
2023-02-19T15:40:50.577Z,23.56
2023-02-19T15:43:25.200Z,23.65
2023-02-19T15:45:57.769Z,23.93
2023-02-19T15:48:30.853Z,23.64
2023-02-19T15:51:09.426Z,23.89
2023-02-19T15:53:45.426Z,24.06
2023-02-19T15:56:28.274Z,23.80
2023-02-19T15:59:02.139Z,23.61
2023-02-19T16:01:34.452Z,23.84
2023-02-19T16:04:03.323Z,24.20
2023-02-19T16:06:30.629Z,23.61
2023-02-19T16:09:19.401Z,24.96
2023-02-19T16:11:54.479Z,23.96
2023-02-19T16:14:32.996Z,23.79
2023-02-19T16:17:12.315Z,24.24
2023-02-19T16:19:45.337Z,24.78
2023-02-19T16:22:16.145Z,24.71
2023-02-19T16:24:49.321Z,24.83
2023-02-19T16:27:30.659Z,25.02
2023-02-19T16:29:58.453Z,25.49
2023-02-19T16:32:25.264Z,25.42
2023-02-19T16:34:52.764Z,25.48
2023-02-19T16:37:59.137Z,25.10
2023-02-19T16:40:55.179Z,25.11
2023-02-19T16:43:30.492Z,26.19
2023-02-19T16:45:58.923Z,25.95
2023-02-19T16:48:26.171Z,26.15
2023-02-19T16:50:53.054Z,25.67
2023-02-19T16:53:24.829Z,25.68
2023-02-19T16:55:52.363Z,25.70
2023-02-19T16:58:19.320Z,25.52
2023-02-19T17:00:46.339Z,25.69
2023-02-19T17:03:19.831Z,25.65
2023-02-19T17:05:47.739Z,25.58
2023-02-19T17:08:20.373Z,26.24
2023-02-19T17:10:47.238Z,26.14
2023-02-19T17:13:13.955Z,26.12
2023-02-19T17:15:40.804Z,26.10
2023-02-19T17:18:10.617Z,26.31
2023-02-19T17:20:38.976Z,26.03
2023-02-19T17:23:05.798Z,26.29
2023-02-19T17:25:32.775Z,26.28
2023-02-19T17:27:59.581Z,25.83
2023-02-19T17:30:31.482Z,25.80
2023-02-19T17:32:58.380Z,25.93
2023-02-19T17:35:25.839Z,25.95
2023-02-19T17:37:53.537Z,25.79
2023-02-19T17:40:33.048Z,26.21
2023-02-19T17:43:00.845Z,26.61
2023-02-19T17:45:27.827Z,25.93
2023-02-19T17:47:54.669Z,25.75
2023-02-19T17:50:24.041Z,25.79
2023-02-19T17:52:50.765Z,26.00
2023-02-19T17:55:18.454Z,25.78
2023-02-19T17:57:49.640Z,26.37
2023-02-19T18:00:25.786Z,26.39
2023-02-19T18:02:53.019Z,26.97
2023-02-19T18:05:20.175Z,26.84
2023-02-19T18:07:48.234Z,27.13
2023-02-19T18:10:20.522Z,27.30
2023-02-19T18:12:47.635Z,26.87
2023-02-19T18:15:20.621Z,26.77
2023-02-19T18:17:47.453Z,26.58
2023-02-19T18:20:26.517Z,26.38
2023-02-19T18:22:54.399Z,27.99
2023-02-19T18:25:21.907Z,27.94
2023-02-19T18:27:49.405Z,26.97
2023-02-19T18:30:19.126Z,26.54
2023-02-19T18:32:50.064Z,26.94
2023-02-19T18:35:19.543Z,26.35
2023-02-19T18:37:52.956Z,26.42
2023-02-19T18:40:26.018Z,26.51
2023-02-19T18:42:53.391Z,26.57
2023-02-19T18:45:20.105Z,26.26
2023-02-19T18:47:48.557Z,26.50
2023-02-19T18:50:16.553Z,26.72
2023-02-19T18:52:43.298Z,26.52
2023-02-19T18:55:10.966Z,26.25
2023-02-19T18:57:37.872Z,26.39
2023-02-19T19:00:09.123Z,26.87
2023-02-19T19:02:48.263Z,26.64
2023-02-19T19:05:22.710Z,26.57
2023-02-19T19:07:51.466Z,26.43
2023-02-19T19:10:18.911Z,26.45
2023-02-19T19:12:45.817Z,28.03
2023-02-19T19:15:12.760Z,27.91
2023-02-19T19:17:40.526Z,27.38
2023-02-19T19:20:08.463Z,27.43
2023-02-19T19:22:35.601Z,27.70
2023-02-19T19:25:02.405Z,27.72
2023-02-19T19:27:30.188Z,28.30
2023-02-19T19:29:58.159Z,27.93
2023-02-19T19:32:24.985Z,28.23
2023-02-19T19:34:51.985Z,28.56
2023-02-19T19:37:18.875Z,28.44
2023-02-19T19:39:45.697Z,28.89
2023-02-19T19:42:12.462Z,28.63
2023-02-19T19:44:39.884Z,28.77
2023-02-19T19:47:06.551Z,28.74
2023-02-19T19:49:33.538Z,28.61
2023-02-19T19:52:01.261Z,28.47
2023-02-19T19:54:28.926Z,28.96
2023-02-19T19:56:55.830Z,29.51
2023-02-19T19:59:23.138Z,29.83
2023-02-19T20:01:52.240Z,29.01
2023-02-19T20:04:21.828Z,28.62
2023-02-19T20:06:48.813Z,28.92
2023-02-19T20:09:16.630Z,28.59
2023-02-19T20:11:53.743Z,28.31
2023-02-19T20:14:23.487Z,28.89
2023-02-19T20:16:51.691Z,28.68
2023-02-19T20:19:20.250Z,29.12
2023-02-19T20:21:49.483Z,29.63
2023-02-19T20:24:26.026Z,29.23
2023-02-19T20:27:01.938Z,29.54
2023-02-19T20:29:33.761Z,30.53
2023-02-19T20:32:03.595Z,30.26
2023-02-19T20:34:30.796Z,30.20
2023-02-19T20:36:57.970Z,30.40
2023-02-19T20:39:28.887Z,30.57
2023-02-19T20:41:56.918Z,30.60
2023-02-19T20:44:24.580Z,30.37
2023-02-19T20:46:53.488Z,31.60
2023-02-19T20:49:24.913Z,31.32
2023-02-19T20:52:01.040Z,31.20
2023-02-19T20:54:30.833Z,30.71
2023-02-19T20:57:00.117Z,31.06
2023-02-19T20:59:31.041Z,31.12
2023-02-19T21:01:59.150Z,31.51
2023-02-19T21:04:26.441Z,31.63
2023-02-19T21:06:53.650Z,31.84
2023-02-19T21:09:21.619Z,31.84
2023-02-19T21:11:49.245Z,32.02
2023-02-19T21:14:16.228Z,32.42
2023-02-19T21:16:43.481Z,32.13
2023-02-19T21:19:10.320Z,32.45
2023-02-19T21:21:39.372Z,32.11
2023-02-19T21:24:06.845Z,32.70
2023-02-19T21:26:36.506Z,33.45
2023-02-19T21:29:05.799Z,33.00
2023-02-19T21:31:37.933Z,33.61
2023-02-19T21:34:07.523Z,32.66
2023-02-19T21:36:34.599Z,33.67
2023-02-19T21:39:01.421Z,33.40
2023-02-19T21:41:28.608Z,33.96
2023-02-19T21:43:55.806Z,33.15
2023-02-19T21:46:23.645Z,33.89
2023-02-19T21:48:52.555Z,33.38
2023-02-19T21:51:21.021Z,34.23
2023-02-19T21:53:47.942Z,34.16
2023-02-19T21:56:23.319Z,33.41
2023-02-19T21:58:50.121Z,32.94
2023-02-19T22:01:25.761Z,33.64
2023-02-19T22:03:52.758Z,33.81
2023-02-19T22:06:22.507Z,33.78
2023-02-19T22:08:49.429Z,34.81
2023-02-19T22:11:16.751Z,34.45
2023-02-19T22:13:43.662Z,35.19
2023-02-19T22:16:11.106Z,34.04
2023-02-19T22:18:37.950Z,34.01
2023-02-19T22:21:06.532Z,34.25
2023-02-19T22:23:33.280Z,35.59
2023-02-19T22:26:00.135Z,35.46
2023-02-19T22:28:26.835Z,34.80
2023-02-19T22:30:53.556Z,35.09
2023-02-19T22:33:20.496Z,35.39
2023-02-19T22:35:47.169Z,35.57
2023-02-19T22:38:13.937Z,34.74
2023-02-19T22:40:40.690Z,35.23
2023-02-19T22:43:07.346Z,35.53
2023-02-19T22:45:34.335Z,35.52
2023-02-19T22:48:02.080Z,36.32
2023-02-19T22:50:28.832Z,35.54
2023-02-19T22:52:55.792Z,35.31
2023-02-19T22:55:22.541Z,35.34
2023-02-19T22:57:49.346Z,35.22
2023-02-19T23:00:19.275Z,36.04
2023-02-19T23:02:48.293Z,35.38
2023-02-19T23:05:16.529Z,36.07
2023-02-19T23:07:44.810Z,36.14
2023-02-19T23:10:12.933Z,35.81
2023-02-19T23:12:41.120Z,36.36
2023-02-19T23:15:09.311Z,37.08
2023-02-19T23:17:36.392Z,35.90
2023-02-19T23:20:03.924Z,35.42
2023-02-19T23:22:30.776Z,35.69
2023-02-19T23:24:57.621Z,35.79
2023-02-19T23:27:26.682Z,36.34
2023-02-19T23:29:53.330Z,36.49
2023-02-19T23:32:21.052Z,37.07
2023-02-19T23:34:48.139Z,36.33
2023-02-19T23:37:15.434Z,36.72
2023-02-19T23:39:42.343Z,36.54
2023-02-19T23:42:15.082Z,36.53
2023-02-19T23:44:42.341Z,37.24
2023-02-19T23:47:09.572Z,36.00
2023-02-19T23:49:36.487Z,37.33
2023-02-19T23:52:03.540Z,36.58
2023-02-19T23:54:30.464Z,36.40
2023-02-19T23:56:58.451Z,36.65
2023-02-19T23:59:25.213Z,37.00
